createdAt,value
2023-06-10T00:01:13.936Z,99938.19
2023-06-10T00:04:17.963Z,99941.50
2023-06-10T00:07:19.815Z,99901.88
2023-06-10T00:10:21.708Z,99927.72
2023-06-10T00:13:23.547Z,99923.94
2023-06-10T00:16:26.301Z,99929.63
2023-06-10T00:19:31.081Z,99909.66
2023-06-10T00:22:33.475Z,99927.41
2023-06-10T00:25:35.699Z,99921.63
2023-06-10T00:28:37.451Z,99927.69
2023-06-10T00:31:39.451Z,99928.47
2023-06-10T00:34:42.146Z,99924.84
2023-06-10T00:37:43.988Z,99918.78
2023-06-10T00:40:45.781Z,99920.50
2023-06-10T00:43:47.597Z,99918.59
2023-06-10T00:46:52.560Z,99921.81
2023-06-10T00:49:55.711Z,99891.50
2023-06-10T00:53:01.083Z,99919.44
2023-06-10T00:56:03.663Z,99912.31
2023-06-10T00:59:05.442Z,99900.16
2023-06-10T01:02:08.728Z,99907.38
2023-06-10T01:05:11.792Z,99899.78
2023-06-10T01:08:19.552Z,99904.53
2023-06-10T01:11:26.377Z,99909.19
2023-06-10T01:14:28.793Z,99899.56
2023-06-10T01:17:31.734Z,99908.31
2023-06-10T01:20:34.018Z,99897.09
2023-06-10T01:23:36.036Z,99906.97
2023-06-10T01:26:38.307Z,99903.34
2023-06-10T01:29:47.550Z,99870.25
2023-06-10T01:32:52.739Z,99912.31
2023-06-10T01:35:57.167Z,99915.09
2023-06-10T01:39:00.857Z,99900.41
2023-06-10T01:42:04.153Z,99897.94
2023-06-10T01:45:07.701Z,99899.75
2023-06-10T01:48:09.751Z,99902.41
2023-06-10T01:51:11.913Z,99882.72
2023-06-10T01:54:13.771Z,99898.41
2023-06-10T01:57:15.561Z,99914.19
2023-06-10T02:00:17.898Z,99914.47
2023-06-10T02:03:20.831Z,99901.78
2023-06-10T02:06:22.965Z,99899.31
2023-06-10T02:09:24.714Z,99901.31
2023-06-10T02:12:26.890Z,99902.38
2023-06-10T02:15:28.798Z,99899.72
2023-06-10T02:18:30.659Z,99911.84
2023-06-10T02:21:32.412Z,99893.69
2023-06-10T02:24:34.150Z,99902.16
2023-06-10T02:27:36.102Z,99891.03
2023-06-10T02:30:43.116Z,99903.59
2023-06-10T02:33:45.813Z,99909.78
2023-06-10T02:36:50.394Z,99905.03
2023-06-10T02:39:52.428Z,99920.28
2023-06-10T02:42:54.845Z,99909.16
2023-06-10T02:45:57.365Z,99900.78
2023-06-10T02:48:59.233Z,99898.47
2023-06-10T02:52:01.304Z,99923.41
2023-06-10T02:55:03.180Z,99916.19
2023-06-10T02:58:05.345Z,99921.50
2023-06-10T03:01:10.663Z,99919.78
2023-06-10T03:04:22.047Z,99918.09
2023-06-10T03:07:32.730Z,99916.19
2023-06-10T03:10:36.064Z,99912.78
2023-06-10T03:13:40.939Z,99917.34
2023-06-10T03:16:46.700Z,99926.78
2023-06-10T03:19:48.841Z,99895.91
2023-06-10T03:22:50.820Z,99920.81
2023-06-10T03:25:53.853Z,99925.75
2023-06-10T03:28:55.941Z,99907.88
2023-06-10T03:31:59.638Z,99931.59
2023-06-10T03:35:01.492Z,99939.50
2023-06-10T03:38:05.715Z,99938.56
2023-06-10T03:41:07.682Z,99938.25
2023-06-10T03:44:10.020Z,99915.03
2023-06-10T03:47:11.866Z,99932.91
2023-06-10T03:50:13.721Z,99936.06
2023-06-10T03:53:18.244Z,99928.00
2023-06-10T03:56:21.374Z,99903.75
2023-06-10T03:59:23.095Z,99930.94
2023-06-10T04:02:25.203Z,99936.44
2023-06-10T04:05:27.333Z,99930.09
2023-06-10T04:08:29.487Z,99923.06
2023-06-10T04:11:31.425Z,99925.81
2023-06-10T04:14:34.009Z,99916.78
2023-06-10T04:17:36.274Z,99912.53
2023-06-10T04:20:38.931Z,99908.03
2023-06-10T04:23:40.851Z,99925.63
2023-06-10T04:26:44.648Z,99929.41
2023-06-10T04:29:46.528Z,99928.75
2023-06-10T04:32:49.216Z,99937.09
2023-06-10T04:35:56.728Z,99937.56
2023-06-10T04:39:01.116Z,99931.38
2023-06-10T04:42:06.427Z,99927.19
2023-06-10T04:45:09.213Z,99930.88
2023-06-10T04:48:13.252Z,99947.94
2023-06-10T04:51:15.240Z,99942.88
2023-06-10T04:54:19.426Z,99942.25
2023-06-10T04:57:22.004Z,99942.16
2023-06-10T05:00:23.911Z,99937.78
2023-06-10T05:03:25.811Z,99922.09
2023-06-10T05:06:27.714Z,99927.34
2023-06-10T05:09:29.632Z,99938.84
2023-06-10T05:12:31.341Z,99909.38
2023-06-10T05:15:33.492Z,99939.00
2023-06-10T05:18:36.249Z,99946.78
2023-06-10T05:21:38.002Z,99939.75
2023-06-10T05:24:41.445Z,99847.03
2023-06-10T05:27:44.037Z,99941.31
2023-06-10T05:30:45.871Z,99940.94
2023-06-10T05:33:47.685Z,99927.72
2023-06-10T05:36:49.549Z,99949.47
2023-06-10T05:39:51.365Z,99938.75
2023-06-10T05:42:53.254Z,99941.13
2023-06-10T05:45:55.097Z,99934.56
2023-06-10T05:48:57.941Z,99901.75
2023-06-10T05:52:00.286Z,99936.63
2023-06-10T05:55:03.512Z,99928.50
2023-06-10T05:58:05.711Z,99929.03
2023-06-10T06:01:07.709Z,99936.53
2023-06-10T06:04:10.143Z,99936.69
2023-06-10T06:07:12.265Z,99931.78
2023-06-10T06:10:14.055Z,99932.53
2023-06-10T06:13:16.339Z,99942.72
2023-06-10T06:16:19.672Z,99946.22
2023-06-10T06:19:21.489Z,99940.88
2023-06-10T06:22:23.432Z,99899.56
2023-06-10T06:25:25.172Z,99937.56
2023-06-10T06:28:30.270Z,99938.84
2023-06-10T06:31:32.842Z,99933.69
2023-06-10T06:34:34.739Z,99942.00
2023-06-10T06:37:37.804Z,99954.19
2023-06-10T06:40:51.210Z,99951.47
2023-06-10T06:43:55.584Z,99948.72
2023-06-10T06:47:05.624Z,99949.19
2023-06-10T06:50:07.583Z,99944.84
2023-06-10T06:53:10.716Z,99937.50
2023-06-10T06:56:48.610Z,99943.00
2023-06-10T06:59:52.265Z,99941.84
2023-06-10T07:02:54.092Z,99912.47
2023-06-10T07:05:56.290Z,99916.28
2023-06-10T07:08:58.120Z,99937.53
2023-06-10T07:11:59.992Z,99940.72
2023-06-10T07:15:02.032Z,99948.53
2023-06-10T07:18:04.906Z,99935.34
2023-06-10T07:21:06.835Z,99948.47
2023-06-10T07:24:08.849Z,99935.41
2023-06-10T07:27:11.347Z,99942.31
2023-06-10T07:30:13.701Z,99931.53
2023-06-10T07:33:15.506Z,99911.25
2023-06-10T07:36:17.387Z,99903.91
2023-06-10T07:39:19.118Z,99940.91
2023-06-10T07:42:21.040Z,99947.00
2023-06-10T07:45:22.890Z,99933.63
2023-06-10T07:48:25.641Z,99924.47
2023-06-10T07:51:27.495Z,99928.22
2023-06-10T07:54:30.434Z,99927.91
2023-06-10T07:57:36.019Z,99926.72
2023-06-10T08:00:37.875Z,99932.22
2023-06-10T08:03:39.841Z,99936.59
2023-06-10T08:06:41.840Z,99916.75
2023-06-10T08:09:43.592Z,99926.41
2023-06-10T08:12:45.495Z,99923.88
2023-06-10T08:15:49.044Z,99855.72
2023-06-10T08:18:54.007Z,99932.81
2023-06-10T08:21:57.579Z,99928.38
2023-06-10T08:24:59.343Z,99917.13
2023-06-10T08:28:01.171Z,99913.47
2023-06-10T08:31:03.080Z,99934.66
2023-06-10T08:34:04.827Z,99925.97
2023-06-10T08:37:08.358Z,99914.91
2023-06-10T08:40:10.609Z,99943.69
2023-06-10T08:43:38.170Z,99931.41
2023-06-10T08:46:43.279Z,99925.97
2023-06-10T08:49:48.288Z,99936.72
2023-06-10T08:52:53.461Z,99935.59
2023-06-10T08:56:00.016Z,99943.00
2023-06-10T08:59:02.823Z,99939.22
2023-06-10T09:02:06.196Z,99929.78
2023-06-10T09:05:09.067Z,99933.72
2023-06-10T09:08:11.118Z,99934.06
2023-06-10T09:11:13.089Z,99929.53
2023-06-10T09:14:15.812Z,99928.25
2023-06-10T09:17:18.849Z,99925.31
2023-06-10T09:20:20.825Z,99908.97
2023-06-10T09:23:22.718Z,99903.88
2023-06-10T09:26:29.296Z,99903.84
2023-06-10T09:29:31.312Z,99907.78
2023-06-10T09:32:40.402Z,99911.34
2023-06-10T09:35:50.225Z,99894.81
2023-06-10T09:38:52.328Z,99894.59
2023-06-10T09:41:54.188Z,99893.09
2023-06-10T09:44:57.528Z,99888.38
2023-06-10T09:47:59.583Z,99896.66
2023-06-10T09:51:01.463Z,99888.25
2023-06-10T09:54:05.311Z,99892.56
2023-06-10T09:57:12.750Z,99876.72
2023-06-10T10:00:15.777Z,99872.13
2023-06-10T10:03:24.305Z,99878.06
2023-06-10T10:06:26.568Z,99876.91
2023-06-10T10:09:28.284Z,99869.66
2023-06-10T10:12:31.046Z,99873.69
2023-06-10T10:15:35.516Z,99876.94
2023-06-10T10:18:45.112Z,99850.84
2023-06-10T10:22:07.422Z,99859.13
2023-06-10T10:25:17.248Z,99854.19
2023-06-10T10:28:22.804Z,99853.50
2023-06-10T10:31:25.815Z,99846.03
2023-06-10T10:34:36.724Z,99856.56
2023-06-10T10:37:38.493Z,99844.34
2023-06-10T10:40:41.038Z,99848.06
2023-06-10T10:43:44.794Z,99852.16
2023-06-10T10:46:52.002Z,99854.69
2023-06-10T10:50:00.290Z,99843.19
2023-06-10T10:53:04.310Z,99834.53
2023-06-10T10:56:14.886Z,99843.69
2023-06-10T10:59:20.977Z,99838.63
2023-06-10T11:02:36.834Z,99829.78
2023-06-10T11:05:50.811Z,99830.84
2023-06-10T11:08:53.123Z,99822.34
2023-06-10T11:11:58.695Z,99815.22
2023-06-10T11:15:00.642Z,99812.66
2023-06-10T11:18:20.788Z,99817.41
2023-06-10T11:21:28.444Z,99810.63
2023-06-10T11:24:31.898Z,99794.53
2023-06-10T11:27:42.144Z,99802.13
2023-06-10T11:30:44.047Z,99799.50
2023-06-10T11:33:47.352Z,99788.16
2023-06-10T11:36:49.269Z,99794.06
2023-06-10T11:39:55.678Z,99792.03
2023-06-10T11:42:59.020Z,99785.13
2023-06-10T11:46:01.325Z,99801.06
2023-06-10T11:49:04.300Z,99818.03
2023-06-10T11:52:06.563Z,99805.41
2023-06-10T11:55:11.028Z,99843.19
2023-06-10T11:58:23.368Z,99867.47
2023-06-10T12:01:29.438Z,99857.00
2023-06-10T12:04:31.943Z,99847.72
2023-06-10T12:07:33.698Z,99859.88
2023-06-10T12:10:41.560Z,99884.84
2023-06-10T12:13:50.991Z,99874.34
2023-06-10T12:16:53.236Z,99868.59
2023-06-10T12:19:55.055Z,99854.22
2023-06-10T12:22:57.182Z,99839.56
2023-06-10T12:26:01.027Z,99872.00
2023-06-10T12:29:13.367Z,99866.34
2023-06-10T12:32:16.359Z,99858.31
2023-06-10T12:35:20.998Z,99861.00
2023-06-10T12:38:25.494Z,99850.88
2023-06-10T12:41:30.048Z,99850.13
2023-06-10T12:44:36.794Z,99848.22
2023-06-10T12:47:42.557Z,99845.97
2023-06-10T12:50:45.214Z,99846.34
2023-06-10T12:53:46.977Z,99825.78
2023-06-10T12:56:49.245Z,99823.28
2023-06-10T12:59:53.825Z,99836.91
2023-06-10T13:02:55.734Z,99835.72
2023-06-10T13:05:58.152Z,99829.56
2023-06-10T13:09:00.016Z,99842.00
2023-06-10T13:12:01.823Z,99859.75
2023-06-10T13:15:04.414Z,99845.38
2023-06-10T13:18:06.411Z,99827.66
2023-06-10T13:21:08.397Z,99843.38
2023-06-10T13:24:10.321Z,99834.88
2023-06-10T13:27:12.269Z,99810.06
2023-06-10T13:30:14.214Z,99843.78
2023-06-10T13:33:16.018Z,99812.41
2023-06-10T13:36:17.962Z,99800.09
2023-06-10T13:39:19.722Z,99839.91
2023-06-10T13:42:21.751Z,99835.41
2023-06-10T13:45:23.603Z,99787.19
2023-06-10T13:48:25.432Z,99827.25
2023-06-10T13:51:27.229Z,99814.81
2023-06-10T13:54:29.129Z,99827.47
2023-06-10T13:57:31.093Z,99799.50
2023-06-10T14:00:32.960Z,99816.53
2023-06-10T14:03:34.917Z,99826.00
2023-06-10T14:06:37.181Z,99820.91
2023-06-10T14:09:39.118Z,99826.75
2023-06-10T14:12:41.022Z,99810.06
2023-06-10T14:15:43.095Z,99814.09
2023-06-10T14:18:44.970Z,99810.50
2023-06-10T14:21:48.249Z,99812.78
2023-06-10T14:24:50.066Z,99817.50
2023-06-10T14:27:52.039Z,99806.19
2023-06-10T14:30:53.850Z,99817.75
2023-06-10T14:33:55.549Z,99806.88
2023-06-10T14:36:57.341Z,99792.91
2023-06-10T14:39:59.197Z,99800.84
2023-06-10T14:43:02.515Z,99794.38
2023-06-10T14:46:05.023Z,99794.38
2023-06-10T14:49:06.836Z,99794.63
2023-06-10T14:52:09.428Z,99799.03
2023-06-10T14:55:11.427Z,99797.19
2023-06-10T14:58:13.474Z,99733.41
2023-06-10T15:01:15.330Z,99795.00
2023-06-10T15:04:18.136Z,99798.44
2023-06-10T15:07:21.294Z,99785.88
2023-06-10T15:10:24.007Z,99795.72
2023-06-10T15:13:25.898Z,99806.97
2023-06-10T15:16:27.803Z,99796.03
2023-06-10T15:19:29.826Z,99791.97
2023-06-10T15:22:34.614Z,99806.09
2023-06-10T15:25:38.235Z,99815.41
2023-06-10T15:28:40.542Z,99812.00
2023-06-10T15:31:42.492Z,99810.28
2023-06-10T15:34:44.366Z,99795.34
2023-06-10T15:37:46.229Z,99778.88
2023-06-10T15:40:48.033Z,99819.53
2023-06-10T15:43:49.824Z,99825.50
2023-06-10T15:46:51.598Z,99836.06
2023-06-10T15:49:53.367Z,99838.53
2023-06-10T15:52:55.079Z,99835.22
2023-06-10T15:55:56.833Z,99838.25
2023-06-10T15:58:58.559Z,99840.19
2023-06-10T16:02:00.321Z,99835.81
2023-06-10T16:05:02.074Z,99854.41
2023-06-10T16:08:04.042Z,99842.75
2023-06-10T16:11:06.388Z,99841.44
2023-06-10T16:14:08.169Z,99830.22
2023-06-10T16:17:10.024Z,99846.78
2023-06-10T16:20:12.224Z,99850.69
2023-06-10T16:23:14.118Z,99836.13
2023-06-10T16:26:15.903Z,99838.28
2023-06-10T16:29:18.151Z,99824.66
2023-06-10T16:32:20.135Z,99832.06
2023-06-10T16:35:21.930Z,99811.78
2023-06-10T16:38:23.667Z,99800.59
2023-06-10T16:41:25.836Z,99818.97
2023-06-10T16:44:27.633Z,99813.72
2023-06-10T16:47:29.677Z,99824.81
2023-06-10T16:50:31.482Z,99822.25
2023-06-10T16:53:33.619Z,99826.88
2023-06-10T16:56:35.886Z,99821.75
2023-06-10T16:59:37.672Z,99798.66
2023-06-10T17:02:39.658Z,99806.13
2023-06-10T17:05:41.664Z,99818.63
2023-06-10T17:08:43.518Z,99810.81
2023-06-10T17:11:45.569Z,99839.28
2023-06-10T17:14:47.297Z,99816.41
2023-06-10T17:17:49.686Z,99805.22
2023-06-10T17:20:51.454Z,99832.81
2023-06-10T17:23:53.196Z,99834.41
2023-06-10T17:26:55.226Z,99849.50
2023-06-10T17:29:57.014Z,99841.69
2023-06-10T17:32:58.804Z,99848.00
2023-06-10T17:36:00.777Z,99845.81
2023-06-10T17:39:02.500Z,99826.56
2023-06-10T17:42:04.712Z,99833.63
2023-06-10T17:45:07.258Z,99829.25
2023-06-10T17:48:09.240Z,99830.84
2023-06-10T17:51:11.463Z,99847.50
2023-06-10T17:54:13.282Z,99794.44
2023-06-10T17:57:15.151Z,99853.06
2023-06-10T18:00:17.331Z,99861.09
2023-06-10T18:03:27.008Z,99851.72
2023-06-10T18:06:28.987Z,99851.34
2023-06-10T18:09:30.831Z,99841.59
2023-06-10T18:12:32.558Z,99854.88
2023-06-10T18:15:36.071Z,99843.31
2023-06-10T18:18:39.513Z,99856.81
2023-06-10T18:21:42.396Z,99854.25
2023-06-10T18:24:44.164Z,99842.31
2023-06-10T18:27:45.973Z,99829.97
2023-06-10T18:30:47.724Z,99857.59
2023-06-10T18:33:49.528Z,99853.34
2023-06-10T18:36:51.283Z,99861.25
2023-06-10T18:39:53.083Z,99870.34
2023-06-10T18:42:54.787Z,99856.81
2023-06-10T18:45:56.582Z,99872.50
2023-06-10T18:48:58.462Z,99871.88
2023-06-10T18:52:00.245Z,99777.03
2023-06-10T18:55:01.980Z,99869.94
2023-06-10T18:58:04.873Z,99871.88
2023-06-10T19:01:06.910Z,99875.94
2023-06-10T19:04:08.996Z,99875.09
2023-06-10T19:07:10.804Z,99874.69
2023-06-10T19:10:12.675Z,99892.88
2023-06-10T19:13:14.580Z,99883.44
2023-06-10T19:16:16.339Z,99895.09
2023-06-10T19:19:18.306Z,99903.97
2023-06-10T19:22:20.163Z,99906.13
2023-06-10T19:25:21.936Z,99915.72
2023-06-10T19:28:23.908Z,99908.69
2023-06-10T19:31:25.893Z,99927.50
2023-06-10T19:34:27.746Z,99916.19
2023-06-10T19:37:29.556Z,99909.13
2023-06-10T19:40:31.323Z,99931.75
2023-06-10T19:43:33.065Z,99941.19
2023-06-10T19:46:34.860Z,99937.84
2023-06-10T19:49:36.597Z,99941.81
2023-06-10T19:52:38.561Z,99935.41
2023-06-10T19:55:40.537Z,99941.81
2023-06-10T19:58:42.264Z,99947.88
2023-06-10T20:01:44.087Z,99955.47
2023-06-10T20:04:45.947Z,99959.75
2023-06-10T20:07:47.735Z,99957.59
2023-06-10T20:10:49.550Z,99954.31
2023-06-10T20:13:51.330Z,99940.38
2023-06-10T20:16:53.298Z,99950.97
2023-06-10T20:19:55.255Z,99938.41
2023-06-10T20:22:57.124Z,99945.88
2023-06-10T20:25:59.084Z,99908.63
2023-06-10T20:29:02.017Z,99951.03
2023-06-10T20:32:03.985Z,99952.06
2023-06-10T20:35:06.812Z,99946.13
2023-06-10T20:38:08.620Z,99946.97
2023-06-10T20:41:10.607Z,99897.44
2023-06-10T20:44:14.929Z,99895.53
2023-06-10T20:47:16.795Z,99945.16
2023-06-10T20:50:18.603Z,99942.59
2023-06-10T20:53:20.541Z,99912.59
2023-06-10T20:56:23.287Z,99955.66
2023-06-10T20:59:25.147Z,99892.50
2023-06-10T21:02:27.046Z,99932.66
2023-06-10T21:05:28.858Z,99939.63
2023-06-10T21:08:30.692Z,99949.66
2023-06-10T21:11:32.492Z,99945.38
2023-06-10T21:14:34.247Z,99948.91
2023-06-10T21:17:36.289Z,99947.94
2023-06-10T21:20:38.190Z,99947.84
2023-06-10T21:23:39.990Z,99952.75
2023-06-10T21:26:41.973Z,99956.81
2023-06-10T21:29:44.424Z,99920.72
2023-06-10T21:32:47.858Z,99918.16
2023-06-10T21:35:50.220Z,99952.13
2023-06-10T21:38:52.236Z,99946.00
2023-06-10T21:41:54.050Z,99949.88
2023-06-10T21:44:55.862Z,99951.66
2023-06-10T21:47:57.668Z,99964.06
2023-06-10T21:50:59.639Z,99962.13
2023-06-10T21:54:01.513Z,99923.69
2023-06-10T21:57:04.308Z,99967.28
2023-06-10T22:00:12.700Z,99963.13
2023-06-10T22:03:14.781Z,99954.00
2023-06-10T22:06:16.902Z,99921.84
2023-06-10T22:09:18.699Z,99950.28
2023-06-10T22:12:20.688Z,99938.50
2023-06-10T22:15:22.617Z,99950.31
2023-06-10T22:18:24.334Z,99931.31
2023-06-10T22:21:26.266Z,99941.75
2023-06-10T22:24:28.145Z,99947.53
2023-06-10T22:27:29.927Z,99948.03
2023-06-10T22:30:32.143Z,99949.31
2023-06-10T22:33:33.907Z,99957.31
2023-06-10T22:36:37.476Z,99945.88
2023-06-10T22:39:39.299Z,99922.25
2023-06-10T22:42:41.076Z,99947.13
2023-06-10T22:45:42.898Z,99937.81
2023-06-10T22:48:44.929Z,99953.16
2023-06-10T22:51:47.616Z,99944.22
2023-06-10T22:54:50.055Z,99944.31
2023-06-10T22:57:51.775Z,99908.81
2023-06-10T23:00:53.510Z,99944.53
2023-06-10T23:03:56.056Z,99934.25
2023-06-10T23:06:57.824Z,99910.53
2023-06-10T23:09:59.561Z,99921.13
2023-06-10T23:13:01.316Z,99927.97
2023-06-10T23:16:03.062Z,99862.97
2023-06-10T23:19:05.319Z,99936.13
2023-06-10T23:22:09.350Z,99934.22
2023-06-10T23:25:12.125Z,99911.84
2023-06-10T23:28:14.134Z,99929.75
2023-06-10T23:31:16.041Z,99928.81
2023-06-10T23:34:17.846Z,99916.53
2023-06-10T23:37:20.869Z,99925.06
2023-06-10T23:40:23.157Z,99920.91
2023-06-10T23:43:25.000Z,99919.00
2023-06-10T23:46:26.911Z,99880.25
2023-06-10T23:49:28.690Z,99899.69
2023-06-10T23:52:31.015Z,99903.00
2023-06-10T23:55:34.024Z,99915.19
2023-06-10T23:58:36.377Z,99918.16
